Latest Coastal Weather Observations for Mackay

IDQ60701

Issued at 2:51 am EST Wednesday 1 April 2015 (issued every 10 minutes, with the page automatically refreshed every 10 minutes)

About coastal observations | Map of coastal stations | Coastal observations for QLD | Marine services | Other Formats
Station Details ID: 033119 Name: MACKAY M.O Lat: -21.12 Lon: 149.22 Height: 30.26 m
Data from the previous 72 hours. | See also: Recent months at Mackay
Date/Time
EST
Temp

°C
Wind Pressure Rain
since 9am
mm
Weather Cloud Vis
km
Sea
Height
m
Swell
Dir
 
Speed
knots
Gust
knots
hPa Trend Height
m
Period
s
Dir
01/02:30am 25.2 SE 9 17 1014.6 - 3.0 - Partly cloudy - - - - -
01/02:00am 25.3 ESE 11 17 1014.9 - 3.0 - Partly cloudy - - - - -
01/01:30am 25.4 ESE 11 19 1015.2 - 3.0 - Partly cloudy - - - - -
01/01:00am 24.9 SE 13 20 1015.7 - 3.0 - Partly cloudy - - - - -
01/12:30am 25.0 SE 14 22 1016.4 - 3.0 - Partly cloudy - - - - -
01/12:00am 25.0 SE 11 19 1016.7 - 3.0 - Cloudy - - - - -
 
Date/Time
EST
Temp

°C
Wind Pressure Rain
since 9am
mm
Weather Cloud Vis
km
Sea
Height
m
Swell
Dir
 
Speed
knots
Gust
knots
hPa Trend Height
m
Period
s
Dir
31/11:30pm 25.0 ESE 11 17 1016.9 - 3.0 - Partly cloudy - - - - -
31/11:00pm 24.9 SE 13 21 1016.8 - 3.0 - Partly cloudy - - - - -
31/10:30pm 24.3 SE 13 21 1017.0 - 3.0 - Partly cloudy - - - - -
31/10:00pm 23.0 SSE 12 19 1017.2 - 3.0 - Partly cloudy - - - - -
31/09:30pm 22.6 S 15 24 1017.5 - 2.2 - Partly cloudy - - - - -
31/09:00pm 22.7 S 18 26 1017.6 R 1.0 - Cloudy - - - - -
31/08:31pm 25.5 SE 15 29 1017.0 - 1.0 - Partly cloudy - - - - -
31/08:30pm 25.8 SE 14 22 1016.9 - 1.0 - Partly cloudy - - - - -
31/08:00pm 25.8 ESE 12 21 1016.5 - 1.0 - Partly cloudy - - - - -
31/07:30pm 25.9 ESE 10 19 1016.0 - 1.0 - Partly cloudy - - - - -
31/07:00pm 25.2 SE 10 17 1015.7 - 0.8 - Partly cloudy - - - - -
31/06:30pm 25.7 SSE 10 17 1015.4 - 0.8 - Partly cloudy - - - - -
31/06:00pm 25.7 SE 9 15 1015.3 R 0.8 - Cloudy - - - - -
31/05:30pm 25.7 SSE 11 16 1015.0 - 0.8 - - - - - - -
31/05:00pm 25.8 SSE 11 19 1014.8 - 0.8 - Mostly clear 10 - - - -
31/04:30pm 26.3 SE 13 23 1014.5 - 0.8 - Mostly clear 10 - - - -
31/04:00pm 27.4 SSE 12 19 1014.2 - 0.8 - Partly cloudy 10 - - - -
31/03:30pm 26.7 SE 11 18 1014.5 - 0.8 - Mostly clear 10 - - - -
31/03:00pm 26.2 SSE 10 16 1014.8 F 0.8 Distant precip. Mostly cloudy 25 - - - -
31/02:30pm 27.1 SSE 13 20 1014.9 - 0.6 - Partly cloudy 10 - - - -
31/02:00pm 26.6 SSE 13 19 1015.0 - 0.6 - Partly cloudy 10 - - - -
31/01:30pm 26.4 SSE 10 15 1015.7 - 0.6 - Partly cloudy 10 - - - -
31/01:00pm 25.0 SSE 9 13 1016.2 - 0.6 - Mostly clear 10 - - - -
31/12:30pm 25.3 SE 12 20 1016.8 - 0.2 Showers Mostly clear 10 - - - -
31/12:00pm 27.4 SSE 12 19 1017.0 F 0.2 Distant precip. Mostly cloudy 25 - - - -
31/11:30am 27.0 SSE 11 16 1017.6 - 0.0 - Mostly clear 10 - - - -
31/11:00am 27.1 SSE 10 15 1017.9 - 0.0 - Mostly clear 10 - - - -
31/10:30am 26.6 SSE 10 15 1018.1 - 0.0 - Mostly clear 10 - - - -
31/10:00am 26.0 SSE 9 14 1018.4 - 0.0 - Mostly clear 10 - - - -
31/09:30am 26.5 S 10 15 1018.1 - 0.0 - Mostly clear 10 - - - -
31/09:00am 25.2 S 9 14 1018.3 R 16.0 Fine Mostly cloudy 20 - - - -
31/08:30am 24.3 S 7 11 1018.2 - 16.0 - Mostly clear 10 - - - -
31/08:00am 24.0 S 9 12 1018.0 - 16.0 - Mostly clear 10 - - - -
31/07:30am 23.1 S 11 16 1017.7 - 16.0 - Mostly clear 10 - - - -
31/07:00am 22.7 SSE 14 23 1017.3 - 16.0 - Mostly clear 10 - - - -
31/06:33am 23.4 SSE 15 25 1016.9 - 14.4 - Mostly clear 10 - - - -
31/06:30am 23.5 SSE 16 24 1016.8 - 14.4 - Mostly clear 10 - - - -
31/06:02am 23.0 SSE 16 25 1016.6 - 14.4 - Mostly clear 10 - - - -
31/06:00am 22.9 SSE 16 25 1016.6 R 14.4 Recent precip. Mostly cloudy 15 - - - -
31/05:34am 23.2 SSE 14 21 1016.5 - 14.2 - Partly cloudy - - - - -
31/05:30am 23.1 SSE 15 22 1016.5 - 14.2 - Partly cloudy - - - - -
31/05:00am 23.6 SSE 16 25 1015.9 - 13.4 - Partly cloudy - - - - -
31/04:59am 23.6 SSE 15 25 1015.9 - 13.4 - Partly cloudy - - - - -
31/04:48am 23.7 S 10 15 1015.9 - 13.2 - Partly cloudy - - - - -
31/04:30am 23.5 S 9 14 1015.9 - 13.2 - Partly cloudy - - - - -
31/04:00am 25.4 SE 9 14 1015.8 - 13.2 - Partly cloudy - - - - -
31/03:30am 25.4 ESE 9 13 1015.9 - 13.2 - Cloudy - - - - -
31/03:00am 24.6 SE 7 11 1015.8 - 13.2 - Cloudy - - - - -
31/02:30am 23.9 SE 10 16 1016.3 - 13.2 - Partly cloudy - - - - -
31/02:00am 23.8 SE 10 18 1016.6 - 13.2 - Partly cloudy - - - - -
31/01:30am 25.0 ESE 9 17 1016.9 - 13.2 - Partly cloudy - - - - -
31/01:00am 23.6 ENE 7 11 1017.2 - 13.2 - Partly cloudy - - - - -
31/12:30am 23.4 ENE 9 14 1017.6 - 13.2 - Partly cloudy - - - - -
31/12:00am 23.9 E 15 24 1018.0 - 11.8 Rain Cloudy - - - - -
 
Date/Time
EST
Temp

°C
Wind Pressure Rain
since 9am
mm
Weather Cloud Vis
km
Sea
Height
m
Swell
Dir
 
Speed
knots
Gust
knots
hPa Trend Height
m
Period
s
Dir
30/11:57pm 23.9 E 15 26 1018.0 - 11.0 - Partly cloudy - - - - -
30/11:30pm 25.5 E 9 13 1018.1 - 10.6 - Partly cloudy - - - - -
30/11:00pm 25.1 E 7 12 1018.1 - 10.6 - Partly cloudy - - - - -
30/10:30pm 24.8 E 12 17 1018.4 - 10.6 - Partly cloudy - - - - -
30/10:00pm 23.4 E 14 20 1018.7 - 10.6 - Partly cloudy - - - - -
30/09:30pm 24.9 E 13 22 1018.7 - 2.4 - Partly cloudy - - - - -
30/09:00pm 26.1 ESE 8 14 1018.7 F 1.0 - Cloudy - - - - -
30/08:30pm 25.9 ESE 8 13 1018.5 - 1.0 - Partly cloudy - - - - -
30/08:00pm 25.1 ESE 9 15 1018.4 - 1.0 - Partly cloudy - - - - -
30/07:30pm 26.2 SE 8 14 1018.0 - 1.0 - Partly cloudy - - - - -
30/07:00pm 25.5 SE 7 10 1017.8 - 1.0 - Partly cloudy - - - - -
30/06:30pm 25.6 SE 8 12 1017.5 - 1.0 - Partly cloudy - - - - -
30/06:00pm 25.7 ESE 7 11 1017.3 R 1.0 - Cloudy - - - - -
30/05:30pm 24.7 SE 8 13 1017.1 - 1.0 - Partly cloudy - - - - -
30/05:00pm 25.2 SE 8 11 1016.9 - 1.0 - Partly cloudy - - - - -
30/04:30pm 26.0 SE 8 19 1016.5 - 0.2 - Partly cloudy - - - - -
30/04:00pm 26.8 ENE 7 12 1016.4 - 0.2 - Mostly clear 10 - - - -
30/03:30pm 28.7 ESE 7 11 1016.1 - 0.2 - Partly cloudy 10 - - - -
30/03:00pm 28.1 SE 7 11 1015.9 S 0.2 Distant precip. Mostly cloudy 20 - - - -
30/02:30pm 29.1 SE 9 16 1015.9 - 0.2 - Partly cloudy 10 - - - -
30/02:00pm 29.3 E 7 11 1016.3 - 0.2 - Mostly clear 10 - - - -
30/01:30pm 29.3 E 9 12 1016.5 - 0.2 - - - - - - -
30/01:00pm 29.5 E 7 12 1017.0 - 0.2 - Partly cloudy 10 - - - -
30/12:30pm 29.1 E 8 13 1017.4 - 0.2 - Mostly clear 10 - - - -
30/12:00pm 29.1 ESE 8 14 1017.8 F 0.2 Haze Partly cloudy 20 - - - -
30/11:30am 29.0 E 8 13 1018.3 - 0.2 - Partly cloudy 10 - - - -
30/11:00am 29.5 E 10 15 1018.7 - 0.2 - Partly cloudy 10 - - - -
30/10:30am 28.7 ENE 8 13 1019.1 - 0.2 - Mostly clear 10 - - - -
30/10:00am 27.6 SE 5 9 1019.2 - 0.0 - Mostly clear 10 - - - -
30/09:30am 26.6 ESE 8 13 1019.2 - 0.0 - Mostly clear 10 - - - -
30/09:00am 27.0 ESE 7 11 1019.2 R 20.4 Distant precip. Mostly cloudy 12 - - - -
30/08:30am 26.5 SE 8 15 1019.0 - 20.4 - Partly cloudy 10 - - - -
30/08:00am 24.4 SE 10 16 1018.7 - 20.4 - Mostly clear 10 - - - -
30/07:30am 24.7 SE 7 14 1018.1 - 20.4 - Partly cloudy 10 - - - -
30/07:00am 24.3 NE 6 11 1017.8 - 20.4 - Partly cloudy 10 - - - -
30/06:30am 23.0 SW 5 9 1017.6 - 20.0 Showers Partly cloudy 10 - - - -
30/06:00am 22.7 SSW 8 11 1017.4 R 20.0 Distant precip. Mostly cloudy 10 - - - -
30/05:30am 22.9 S 7 11 1017.3 - 20.0 - Partly cloudy - - - - -
30/05:11am 23.2 SSE 9 14 1017.1 - 20.0 - Partly cloudy - - - - -
30/05:00am 23.1 SSE 10 18 1017.0 - 19.4 - Partly cloudy - - - - -
30/04:38am 22.8 SW 5 10 1016.9 - 14.6 - Partly cloudy - - - - -
30/04:30am 23.0 SW 4 5 1016.9 - 14.2 - Partly cloudy - - - - -
30/04:26am 23.0 SW 5 9 1016.9 - 14.2 - Partly cloudy - - - - -
30/04:00am 23.1 SSW 5 11 1016.7 - 14.0 - Partly cloudy - - - - -
30/03:39am 22.6 SSW 8 12 1016.7 - 4.6 - Partly cloudy - - - - -
30/03:30am 22.7 SSW 8 10 1016.7 - 3.4 - Partly cloudy - - - - -
30/03:00am 23.4 S 7 13 1016.5 - 1.2 Recent precip. Cloudy - - - - -
30/02:30am 23.6 SSE 9 13 1016.7 - 1.2 - Partly cloudy - - - - -
30/02:00am 24.3 ESE 8 16 1017.2 - 0.4 - Partly cloudy - - - - -
30/01:30am 25.7 SE 8 14 1017.4 - 0.2 - Partly cloudy - - - - -
30/01:00am 24.8 SSE 12 17 1017.6 - 0.2 - Partly cloudy - - - - -
30/12:30am 23.9 SSE 6 9 1017.9 - 0.2 - Partly cloudy - - - - -
30/12:00am 26.3 SE 12 18 1018.3 - 0.2 - Mostly cloudy - - - - -
 
Date/Time
EST
Temp

°C
Wind Pressure Rain
since 9am
mm
Weather Cloud Vis
km
Sea
Height
m
Swell
Dir
 
Speed
knots
Gust
knots
hPa Trend Height
m
Period
s
Dir
29/11:30pm 25.9 SE 10 16 1018.5 - 0.2 - Partly cloudy - - - - -
29/11:00pm 27.3 ESE 9 16 1018.8 - 0.2 - Partly cloudy - - - - -
29/10:30pm 27.3 ESE 11 17 1019.0 - 0.2 - Partly cloudy - - - - -
29/10:00pm 27.2 ESE 10 16 1019.1 - 0.2 - Partly cloudy - - - - -
29/09:30pm 27.3 SE 10 15 1019.0 - 0.2 - Partly cloudy - - - - -
29/09:00pm 27.1 ESE 9 14 1018.9 F 0.2 - Cloudy - - - - -
29/08:30pm 25.5 SSE 6 12 1018.8 - 0.2 - Partly cloudy - - - - -
29/08:00pm 25.0 S 6 9 1018.5 - 0.2 - Partly cloudy - - - - -
29/07:30pm 25.2 S 7 9 1018.3 - 0.2 - Partly cloudy - - - - -
29/07:00pm 25.5 S 7 12 1018.0 - 0.2 - Partly cloudy - - - - -
29/06:30pm 26.4 SSE 8 11 1017.8 - 0.2 - Partly cloudy - - - - -
29/06:00pm 27.5 ESE 8 13 1017.5 R 0.2 - Partly cloudy - - - - -
29/05:30pm 27.7 ESE 8 13 1017.2 - 0.2 - Partly cloudy - - - - -
29/05:00pm 28.0 ESE 8 12 1017.0 - 0.2 - Partly cloudy 10 - - - -
29/04:30pm 28.3 ESE 8 14 1016.8 - 0.2 - Partly cloudy 10 - - - -
29/04:00pm 28.8 ESE 8 14 1016.5 - 0.2 - Partly cloudy 10 - - - -
29/03:30pm 28.8 ESE 7 11 1016.4 - 0.2 - Partly cloudy 10 - - - -
29/03:00pm 29.1 E 9 15 1016.5 R 0.2 Haze Partly cloudy 18 - - - -
29/02:30pm 29.4 E 9 14 1016.5 - 0.2 - Partly cloudy - - - - -
29/02:00pm 29.1 ESE 8 13 1016.9 - 0.2 - Mostly clear 10 - - - -
29/01:30pm 29.1 E 8 13 1017.2 - 0.2 - Mostly clear 10 - - - -
29/01:00pm 28.6 E 7 11 1017.6 - 0.2 - Partly cloudy 10 - - - -
29/12:30pm 28.9 E 7 12 1017.9 - 0.2 - Mostly clear 10 - - - -
29/12:00pm 28.5 E 8 13 1018.2 R 0.2 Haze Partly cloudy 18 - - - -
29/11:30am 28.3 NE 8 11 1018.5 - 0.2 - Partly cloudy 10 - - - -
29/11:00am 27.7 ENE 17 24 1018.7 - 0.2 - Mostly clear 10 - - - -
29/10:30am 30.2 E 11 15 1018.7 - 0.0 - Partly cloudy 10 - - - -
29/10:00am 28.0 E 9 15 1018.7 - 0.0 - Partly cloudy 10 - - - -
29/09:30am 29.0 ESE 9 15 1018.7 - 0.0 - Partly cloudy 10 - - - -
29/09:00am 28.7 ESE 8 13 1018.6 R 0.0 Haze Partly cloudy 20 - - - -
29/08:30am 27.1 E 8 13 1018.5 - 0.0 - Partly cloudy - - - - -
29/08:00am 27.4 ESE 8 13 1018.3 - 0.0 - Partly cloudy 10 - - - -
29/07:30am 27.6 ESE 7 15 1017.9 - 0.0 - Partly cloudy 10 - - - -
29/07:00am 27.2 E 7 12 1017.3 - 0.0 - Partly cloudy 10 - - - -
29/06:30am 26.7 E 11 15 1016.9 - 0.0 - Partly cloudy 10 - - - -
29/06:01am 26.7 E 10 15 1016.6 - 0.0 - Mostly clear 10 - - - -
29/06:00am 26.8 E 10 15 1016.6 R 0.0 Haze Partly cloudy 20 - - - -
29/05:30am 26.7 E 11 16 1016.3 - 0.0 - Partly cloudy - - - - -
29/05:00am 26.8 E 10 18 1016.0 - 0.0 - Partly cloudy - - - - -
29/04:30am 26.6 ESE 7 12 1015.6 - 0.0 - Partly cloudy - - - - -
29/04:00am 26.6 E 8 14 1015.4 - 0.0 - - - - - - -
29/03:30am 26.7 E 9 14 1015.4 - 0.0 - Partly cloudy - - - - -
29/03:00am 26.7 E 10 16 1015.6 - 0.0 - Partly cloudy - - - - -

Other Formats:

Comma delimited format used in spreadsheet applications
http://www.bom.gov.au/fwo/IDQ60701/IDQ60701.94367.axf

JavaScript Object Notation format (JSON) in row-major order
http://www.bom.gov.au/fwo/IDQ60701/IDQ60701.94367.json